KHST/HST METAR and TAF weather

Enter ICAO airport designator
Station Type Date Time Source
KHST METAR 2021/07/26 16:56 UTC NOAA

KHST 261656Z AUTO 00000KT 10SM BKN032 30/24 A2997 RMK AO2 SLP152 T02980242


Station Type Date Time Source
KHST Decoded METAR 2021/07/26 16:56 UTC NOAA

Homestead Air Force Base, FL, United States (KHST) 25-29N 080-23W
Jul 26, 2021 - 12:56 PM EDT / 2021.07.26 1656 UTC
Wind: Calm:0
Visibility: 10 mile(s):0
Sky conditions: mostly cloudy
Temperature: 85.6 F (29.8 C)
Heat index: 94.5 F (34.7 C):1
Dew Point: 75.6 F (24.2 C)
Relative Humidity: 71%
Pressure (altimeter): 29.97 in. Hg (1014 hPa)
ob: KHST 261656Z AUTO 00000KT 10SM BKN032 30/24 A2997 RMK AO2 SLP152 T02980242
cycle: 17

Station Type Date Time Source
KHST TAF 2021/07/26 11:07 UTC NOAA

TAF KHST 261100Z 2611/2717 VRB03KT 9999 FEW025 SCT040 SCT100 BKN180 QNH2993INS
BECMG 2614/2615 12008KT 9999 VCSH SCT040 SCT120 BKN180 QNH2992INS
TEMPO 2618/2623 15012G18KT 3200 TSRA BR FEW015 BKN020 OVC035CB
BECMG 2623/2624 12003KT 9999 NSW FEW025 SCT040 QNH2993INS
BECMG 2714/2715 15008KT 9999 FEW035 SCT090 QNH3004INS TX31/2617Z TN25/2611Z

Example: see airport list